Little Mackinaw, Illinois
Current Conditions -  °F | °C
As of 7:15 AM on Friday 31 Oct 2014 (Local Time) from KAAA Reporting Station
Overcast Overcast  
Wind Chill: 33°   Ceiling: 5000
Heat Index: 40°   Visibility: 10mi
Dew Point: 29°   Wind: 14mph
Humidity: 65%   Direction: 330°NNW
Pressure: 30.15"   Gusts: 24mph
Location:  40.4411°N, 89.3259°W
Report Text: KAAA 311215Z AUTO 33012G21KT 10SM SCT035 SCT045 OVC050 05/M01 A3015 RMK AO2 T00471014
Loading
Personal Weather Stations






























Interactive Weather Map New forecast layout! Learn more

10-Day Weather Forecast

Advertisements
Track Severe Weather on mobile